createdAt,value
2022-08-19T00:01:41.773Z,50.93
2022-08-19T00:04:12.691Z,50.80
2022-08-19T00:06:44.452Z,50.57
2022-08-19T00:09:15.565Z,51.33
2022-08-19T00:11:44.077Z,50.27
2022-08-19T00:14:13.775Z,50.77
2022-08-19T00:16:44.019Z,51.00
2022-08-19T00:19:12.131Z,50.43
2022-08-19T00:21:41.421Z,51.60
2022-08-19T00:24:10.354Z,50.73
2022-08-19T00:26:39.405Z,50.50
2022-08-19T00:29:09.039Z,51.00
2022-08-19T00:31:37.636Z,50.73
2022-08-19T00:34:05.684Z,51.13
2022-08-19T00:36:33.922Z,50.73
2022-08-19T00:39:03.593Z,51.03
2022-08-19T00:41:31.599Z,51.37
2022-08-19T00:44:02.499Z,51.13
2022-08-19T00:46:30.597Z,50.67
2022-08-19T00:48:59.250Z,50.97
2022-08-19T00:51:29.092Z,51.13
2022-08-19T00:53:58.893Z,50.50
2022-08-19T00:56:28.814Z,50.67
2022-08-19T00:58:58.243Z,50.20
2022-08-19T01:01:26.674Z,50.67
2022-08-19T01:03:57.591Z,51.37
2022-08-19T01:06:27.638Z,50.30
2022-08-19T01:08:56.283Z,51.00
2022-08-19T01:11:24.229Z,50.53
2022-08-19T01:13:54.827Z,50.90
2022-08-19T01:16:27.007Z,50.20
2022-08-19T01:18:55.166Z,51.03
2022-08-19T01:21:30.814Z,51.00
2022-08-19T01:24:01.889Z,50.73
2022-08-19T01:26:31.308Z,50.80
2022-08-19T01:29:01.924Z,51.07
2022-08-19T01:31:32.577Z,50.60
2022-08-19T01:34:02.283Z,50.67
2022-08-19T01:36:33.470Z,50.47
2022-08-19T01:39:04.823Z,50.03
2022-08-19T01:41:32.857Z,50.37
2022-08-19T01:44:03.805Z,50.20
2022-08-19T01:46:46.854Z,49.90
2022-08-19T01:49:14.861Z,50.80
2022-08-19T01:51:42.661Z,51.57
2022-08-19T01:54:13.734Z,50.47
2022-08-19T01:56:52.106Z,51.90
2022-08-19T01:59:22.489Z,50.87
2022-08-19T02:01:50.432Z,50.63
2022-08-19T02:04:18.482Z,50.53
2022-08-19T02:06:46.315Z,50.53
2022-08-19T02:09:15.521Z,51.00
2022-08-19T02:11:43.555Z,50.63
2022-08-19T02:14:11.468Z,50.77
2022-08-19T02:16:40.982Z,50.17
2022-08-19T02:19:08.978Z,50.63
2022-08-19T02:21:37.062Z,50.27
2022-08-19T02:24:05.946Z,50.23
2022-08-19T02:26:35.817Z,49.97
2022-08-19T02:29:03.817Z,49.80
2022-08-19T02:31:31.605Z,50.00
2022-08-19T02:33:59.809Z,50.03
2022-08-19T02:36:28.674Z,49.53
2022-08-19T02:38:57.348Z,49.63
2022-08-19T02:41:28.607Z,50.03
2022-08-19T02:44:29.969Z,49.63
2022-08-19T02:46:59.471Z,50.10
2022-08-19T02:49:27.352Z,49.97
2022-08-19T02:51:55.254Z,50.27
2022-08-19T02:54:23.073Z,49.87
2022-08-19T02:56:50.957Z,50.20
2022-08-19T02:59:20.320Z,49.83
2022-08-19T03:01:52.391Z,49.80
2022-08-19T03:04:21.369Z,49.90
2022-08-19T03:06:49.596Z,49.67
2022-08-19T03:09:18.317Z,49.53
2022-08-19T03:11:46.462Z,49.50
2022-08-19T03:14:16.470Z,50.13
2022-08-19T03:16:46.582Z,49.77
2022-08-19T03:19:17.757Z,49.87
2022-08-19T03:21:46.445Z,50.10
2022-08-19T03:24:16.296Z,50.10
2022-08-19T03:26:46.518Z,49.53
2022-08-19T03:29:14.778Z,49.80
2022-08-19T03:31:53.023Z,49.70
2022-08-19T03:34:27.260Z,49.97
2022-08-19T03:36:56.859Z,49.70
2022-08-19T03:39:26.162Z,50.23
2022-08-19T03:42:29.261Z,49.67
2022-08-19T03:44:46.560Z,49.93
2022-08-19T03:47:16.878Z,50.17
2022-08-19T03:49:46.619Z,49.67
2022-08-19T03:52:15.081Z,49.70
2022-08-19T03:54:44.171Z,49.67
2022-08-19T03:57:12.455Z,49.80
2022-08-19T03:59:40.784Z,49.73
2022-08-19T04:02:11.837Z,49.63
2022-08-19T04:04:40.903Z,49.37
2022-08-19T04:07:11.838Z,49.77
2022-08-19T04:09:39.747Z,49.33
2022-08-19T04:12:08.420Z,49.23
2022-08-19T04:14:36.507Z,49.83
2022-08-19T04:17:06.290Z,49.70
2022-08-19T04:19:35.572Z,49.93
2022-08-19T04:22:04.313Z,49.30
2022-08-19T04:24:33.838Z,49.60
2022-08-19T04:27:01.876Z,50.40
2022-08-19T04:29:30.382Z,50.00
2022-08-19T04:31:59.669Z,49.20
2022-08-19T04:34:30.513Z,49.90
2022-08-19T04:37:00.432Z,49.80
2022-08-19T04:39:50.377Z,49.57
2022-08-19T04:42:37.534Z,49.60
2022-08-19T04:45:06.412Z,49.70
2022-08-19T04:47:48.189Z,50.00
2022-08-19T04:50:25.631Z,49.73
2022-08-19T04:52:54.436Z,49.73
2022-08-19T04:55:22.568Z,49.57
2022-08-19T04:57:52.123Z,49.60
2022-08-19T05:00:20.119Z,49.93
2022-08-19T05:02:50.072Z,49.67
2022-08-19T05:05:18.119Z,49.93
2022-08-19T05:07:46.046Z,49.23
2022-08-19T05:10:14.203Z,49.50
2022-08-19T05:12:42.087Z,49.30
2022-08-19T05:15:12.042Z,49.60
2022-08-19T05:17:59.874Z,49.60
2022-08-19T05:20:45.482Z,49.67
2022-08-19T05:23:22.175Z,49.67
2022-08-19T05:25:52.479Z,48.80
2022-08-19T05:28:20.817Z,50.37
2022-08-19T05:30:51.697Z,50.10
2022-08-19T05:33:19.876Z,49.70
2022-08-19T05:35:49.240Z,49.83
2022-08-19T05:38:18.080Z,50.57
2022-08-19T05:40:47.537Z,50.10
2022-08-19T05:43:16.311Z,50.17
2022-08-19T05:45:44.699Z,50.33
2022-08-19T05:48:15.594Z,50.30
2022-08-19T05:50:43.815Z,50.17
2022-08-19T05:53:11.818Z,50.40
2022-08-19T05:55:40.583Z,50.13
2022-08-19T05:58:08.874Z,50.30
2022-08-19T06:00:37.799Z,50.10
2022-08-19T06:03:11.719Z,50.90
2022-08-19T06:05:50.317Z,50.80
2022-08-19T06:08:34.510Z,51.03
2022-08-19T06:11:15.053Z,50.67
2022-08-19T06:13:42.958Z,50.97
2022-08-19T06:16:10.852Z,51.40
2022-08-19T06:18:38.704Z,50.50
2022-08-19T06:21:07.928Z,51.53
2022-08-19T06:23:36.358Z,51.30
2022-08-19T06:26:04.217Z,50.90
2022-08-19T06:28:33.823Z,51.00
2022-08-19T06:31:07.185Z,51.27
2022-08-19T06:33:34.967Z,51.83
2022-08-19T06:36:03.370Z,51.47
2022-08-19T06:38:34.228Z,51.80
2022-08-19T06:41:07.387Z,51.17
2022-08-19T06:43:36.986Z,51.70
2022-08-19T06:46:12.809Z,51.83
2022-08-19T06:48:45.805Z,51.90
2022-08-19T06:51:16.545Z,52.13
2022-08-19T06:56:25.814Z,51.40
2022-08-19T06:58:53.738Z,51.87
2022-08-19T07:01:22.108Z,51.50
2022-08-19T07:03:50.051Z,52.33
2022-08-19T07:06:43.084Z,52.13
2022-08-19T07:09:12.278Z,53.03
2022-08-19T07:11:40.294Z,52.17
2022-08-19T07:14:16.691Z,52.83
2022-08-19T07:16:48.647Z,53.03
2022-08-19T07:19:18.990Z,52.77
2022-08-19T07:21:53.495Z,52.87
2022-08-19T07:24:24.622Z,52.67
2022-08-19T07:26:54.633Z,52.20
2022-08-19T07:29:25.666Z,52.77
2022-08-19T07:31:59.990Z,52.33
2022-08-19T07:34:30.242Z,52.50
2022-08-19T07:36:58.516Z,53.20
2022-08-19T07:39:30.156Z,52.33
2022-08-19T07:41:59.693Z,52.53
2022-08-19T07:44:27.567Z,52.80
2022-08-19T07:46:58.571Z,52.77
2022-08-19T07:49:26.495Z,52.70
2022-08-19T07:51:56.745Z,52.53
2022-08-19T07:54:28.974Z,52.80
2022-08-19T07:56:57.627Z,52.73
2022-08-19T07:59:26.702Z,54.20
2022-08-19T08:01:54.794Z,54.20
2022-08-19T08:04:40.473Z,54.13
2022-08-19T08:07:31.472Z,53.70
2022-08-19T08:10:03.389Z,55.27
2022-08-19T08:12:35.543Z,54.87
2022-08-19T08:15:08.782Z,54.73
2022-08-19T08:17:49.747Z,54.53
2022-08-19T08:20:20.380Z,55.50
2022-08-19T08:23:06.592Z,55.23
2022-08-19T08:25:37.325Z,55.57
2022-08-19T08:28:06.241Z,56.10
2022-08-19T08:30:36.682Z,56.23
2022-08-19T08:33:06.194Z,55.87
2022-08-19T08:35:34.389Z,54.23
2022-08-19T08:38:04.578Z,54.53
2022-08-19T08:40:44.142Z,54.73
2022-08-19T08:43:23.768Z,54.80
2022-08-19T08:45:58.275Z,54.80
2022-08-19T08:48:36.015Z,55.53
2022-08-19T08:51:06.915Z,55.40
2022-08-19T08:53:41.801Z,55.40
2022-08-19T08:56:13.956Z,55.47
2022-08-19T08:58:56.353Z,55.80
2022-08-19T09:01:24.346Z,56.33
2022-08-19T09:04:03.103Z,56.10
2022-08-19T09:06:40.978Z,55.37
2022-08-19T09:09:17.902Z,54.63
2022-08-19T09:11:58.900Z,55.03
2022-08-19T09:14:54.043Z,54.87
2022-08-19T09:17:31.988Z,55.40
2022-08-19T09:20:09.165Z,54.70
2022-08-19T09:22:38.585Z,55.10
2022-08-19T09:25:08.286Z,54.77
2022-08-19T09:27:53.949Z,55.17
2022-08-19T09:30:26.008Z,55.53
2022-08-19T09:32:54.736Z,55.37
2022-08-19T09:35:24.294Z,55.73
2022-08-19T09:37:57.335Z,55.00
2022-08-19T09:40:30.114Z,55.70
2022-08-19T09:43:13.123Z,56.17
2022-08-19T09:45:42.027Z,56.03
2022-08-19T09:48:10.058Z,56.97
2022-08-19T09:50:51.609Z,56.87
2022-08-19T09:53:20.133Z,55.10
2022-08-19T09:55:47.918Z,56.10
2022-08-19T09:58:17.145Z,56.00
2022-08-19T10:00:46.551Z,55.87
2022-08-19T10:03:19.503Z,56.50
2022-08-19T10:05:50.188Z,56.80
2022-08-19T10:08:20.836Z,56.63
2022-08-19T10:10:49.472Z,56.57
2022-08-19T10:13:25.898Z,55.70
2022-08-19T10:15:54.791Z,56.60
2022-08-19T10:18:25.347Z,56.37
2022-08-19T10:21:03.352Z,55.90
2022-08-19T10:23:33.800Z,56.00
2022-08-19T10:26:04.190Z,56.80
2022-08-19T10:28:33.758Z,57.27
2022-08-19T10:31:07.227Z,57.13
2022-08-19T10:33:38.900Z,55.90
2022-08-19T10:36:23.417Z,57.13
2022-08-19T10:38:56.878Z,57.07
2022-08-19T10:41:29.446Z,56.27
2022-08-19T10:44:04.493Z,55.63
2022-08-19T10:46:33.464Z,56.60
2022-08-19T10:49:02.447Z,57.00
2022-08-19T10:51:48.739Z,57.87
2022-08-19T10:54:17.896Z,56.73
2022-08-19T10:56:58.262Z,58.03
2022-08-19T10:59:33.808Z,57.33
2022-08-19T11:02:05.720Z,57.40
2022-08-19T11:04:34.160Z,57.50
2022-08-19T11:07:04.520Z,57.40
2022-08-19T11:09:34.300Z,57.30
2022-08-19T11:12:04.898Z,56.37
2022-08-19T11:14:35.268Z,56.87
2022-08-19T11:17:04.183Z,55.80
2022-08-19T11:19:32.777Z,57.47
2022-08-19T11:22:03.761Z,57.23
2022-08-19T11:24:31.928Z,57.50
2022-08-19T11:27:05.330Z,58.20
2022-08-19T11:29:35.333Z,57.70
2022-08-19T11:32:06.969Z,57.10
2022-08-19T11:34:36.198Z,56.33
2022-08-19T11:37:06.683Z,57.87
2022-08-19T11:39:36.436Z,58.20
2022-08-19T11:42:26.854Z,57.47
2022-08-19T11:44:56.542Z,57.67
2022-08-19T11:47:24.905Z,58.07
2022-08-19T11:49:54.340Z,57.23
2022-08-19T11:52:22.182Z,58.40
2022-08-19T11:54:50.107Z,57.90
2022-08-19T11:57:18.248Z,57.97
2022-08-19T11:59:51.111Z,56.60
2022-08-19T12:02:20.768Z,58.10
2022-08-19T12:04:48.796Z,56.87
2022-08-19T12:07:16.985Z,57.47
2022-08-19T12:09:44.987Z,56.87
2022-08-19T12:12:14.181Z,57.83
2022-08-19T12:14:41.990Z,57.60
2022-08-19T12:17:10.352Z,57.27
2022-08-19T12:19:40.499Z,57.03
2022-08-19T12:22:08.556Z,57.27
2022-08-19T12:24:36.754Z,56.50
2022-08-19T12:27:04.787Z,57.77
2022-08-19T12:29:33.241Z,57.40
2022-08-19T12:32:02.164Z,56.93
2022-08-19T12:34:31.987Z,56.03
2022-08-19T12:37:05.426Z,56.50
2022-08-19T12:39:36.823Z,57.53
2022-08-19T12:42:06.539Z,56.40
2022-08-19T12:44:34.343Z,58.30
2022-08-19T12:47:05.255Z,57.27
2022-08-19T12:49:53.921Z,57.77
2022-08-19T12:52:25.439Z,57.27
2022-08-19T12:54:54.117Z,57.27
2022-08-19T12:57:23.220Z,58.40
2022-08-19T12:59:57.738Z,57.73
2022-08-19T13:02:25.518Z,57.57
2022-08-19T13:04:53.319Z,57.70
2022-08-19T13:07:21.149Z,57.47
2022-08-19T13:09:53.481Z,57.67
2022-08-19T13:12:21.933Z,57.83
2022-08-19T13:14:52.880Z,56.57
2022-08-19T13:17:21.527Z,57.77
2022-08-19T13:19:49.391Z,57.63
2022-08-19T13:22:17.187Z,57.13
2022-08-19T13:24:47.259Z,58.17
2022-08-19T13:27:16.762Z,58.27
2022-08-19T13:30:02.304Z,57.90
2022-08-19T13:32:48.905Z,56.93
2022-08-19T13:35:17.458Z,56.60
2022-08-19T13:37:46.289Z,57.13
2022-08-19T13:40:18.996Z,57.17
2022-08-19T13:42:50.817Z,56.33
2022-08-19T13:45:21.422Z,57.50
2022-08-19T13:47:51.040Z,56.60
2022-08-19T13:50:25.812Z,56.90
2022-08-19T13:52:54.222Z,57.47
2022-08-19T13:55:24.979Z,58.47
2022-08-19T13:58:19.339Z,57.83
2022-08-19T14:00:51.085Z,57.10
2022-08-19T14:03:19.009Z,57.97
2022-08-19T14:05:47.540Z,57.00
2022-08-19T14:08:16.194Z,58.03
2022-08-19T14:10:45.401Z,57.93
2022-08-19T14:13:18.156Z,57.67
2022-08-19T14:15:46.615Z,57.47
2022-08-19T14:18:14.955Z,58.57
2022-08-19T14:20:43.774Z,57.27
2022-08-19T14:23:13.106Z,58.20
2022-08-19T14:25:41.041Z,57.30
2022-08-19T14:28:09.033Z,58.27
2022-08-19T14:30:39.552Z,57.23
2022-08-19T14:33:09.158Z,57.17
2022-08-19T14:35:39.544Z,56.50
2022-08-19T14:38:08.955Z,57.87
2022-08-19T14:40:36.845Z,58.07
2022-08-19T14:43:06.061Z,57.50
2022-08-19T14:45:36.582Z,58.07
2022-08-19T14:48:06.975Z,57.60
2022-08-19T14:50:36.893Z,57.87
2022-08-19T14:53:11.940Z,57.67
2022-08-19T14:55:43.737Z,56.70
2022-08-19T14:58:29.185Z,57.80
2022-08-19T15:00:58.450Z,57.20
2022-08-19T15:03:27.890Z,57.27
2022-08-19T15:05:58.479Z,58.30
2022-08-19T15:08:27.708Z,56.87
2022-08-19T15:10:55.956Z,57.40
2022-08-19T15:13:25.463Z,56.47
2022-08-19T15:15:53.529Z,58.17
2022-08-19T15:18:22.645Z,58.13
2022-08-19T15:20:52.245Z,58.00
2022-08-19T15:23:21.711Z,57.80
2022-08-19T15:25:55.761Z,57.00
2022-08-19T15:28:25.842Z,57.50
2022-08-19T15:30:54.073Z,57.47
2022-08-19T15:33:22.057Z,57.60
2022-08-19T15:35:52.270Z,56.40
2022-08-19T15:38:22.043Z,57.17
2022-08-19T15:40:50.912Z,57.23
2022-08-19T15:43:21.181Z,56.33
2022-08-19T15:45:49.738Z,56.10
2022-08-19T15:48:18.002Z,56.90
2022-08-19T15:50:45.809Z,57.57
2022-08-19T15:53:15.111Z,56.80
2022-08-19T15:55:45.465Z,58.13
2022-08-19T15:58:32.684Z,57.07
2022-08-19T16:01:20.772Z,56.20
2022-08-19T16:04:11.074Z,57.57
2022-08-19T16:06:45.739Z,56.03
2022-08-19T16:09:15.646Z,56.70
2022-08-19T16:11:45.916Z,56.43
2022-08-19T16:14:14.574Z,56.63
2022-08-19T16:16:44.450Z,56.67
2022-08-19T16:19:15.482Z,57.70
2022-08-19T16:21:44.247Z,56.97
2022-08-19T16:24:15.165Z,56.33
2022-08-19T16:26:44.515Z,56.80
2022-08-19T16:29:13.586Z,55.70
2022-08-19T16:31:43.312Z,56.50
2022-08-19T16:34:11.971Z,55.73
2022-08-19T16:36:41.641Z,56.83
2022-08-19T16:39:10.011Z,56.97
2022-08-19T16:41:40.521Z,56.97
2022-08-19T16:44:10.346Z,54.80
2022-08-19T16:46:39.692Z,56.07
2022-08-19T16:49:08.843Z,56.07
2022-08-19T16:51:36.740Z,56.17
2022-08-19T16:54:05.703Z,55.90
2022-08-19T16:56:33.570Z,56.90
2022-08-19T16:59:03.251Z,56.63
2022-08-19T17:01:31.820Z,56.30
2022-08-19T17:03:59.707Z,55.20
2022-08-19T17:06:30.841Z,57.10
2022-08-19T17:09:01.587Z,56.07
2022-08-19T17:11:44.317Z,57.37
2022-08-19T17:14:24.599Z,55.77
2022-08-19T17:16:52.971Z,56.17
2022-08-19T17:19:20.863Z,55.70
2022-08-19T17:21:48.667Z,56.80
2022-08-19T17:24:16.541Z,56.70
2022-08-19T17:26:44.409Z,56.40
2022-08-19T17:29:12.202Z,56.90
2022-08-19T17:31:41.381Z,55.80
2022-08-19T17:34:09.340Z,56.37
2022-08-19T17:36:38.089Z,56.70
2022-08-19T17:39:06.307Z,56.33
2022-08-19T17:41:35.119Z,56.67
2022-08-19T17:44:03.345Z,56.13
2022-08-19T17:46:31.235Z,56.23
2022-08-19T17:49:00.737Z,56.23
2022-08-19T17:51:42.003Z,56.27
2022-08-19T17:54:11.913Z,56.50
2022-08-19T17:56:40.346Z,56.20
2022-08-19T17:59:11.795Z,56.67
2022-08-19T18:01:53.442Z,56.10
2022-08-19T18:04:29.707Z,56.27
2022-08-19T18:06:57.589Z,56.00
2022-08-19T18:09:41.640Z,56.77
2022-08-19T18:12:13.766Z,55.97
2022-08-19T18:17:26.721Z,55.93
2022-08-19T18:19:58.129Z,56.20
2022-08-19T18:22:28.729Z,56.23
2022-08-19T18:24:57.945Z,56.40
2022-08-19T18:27:26.260Z,56.17
2022-08-19T18:30:00.211Z,54.73
2022-08-19T18:32:31.235Z,56.03
2022-08-19T18:35:01.761Z,55.10
2022-08-19T18:37:32.336Z,57.00
2022-08-19T18:40:18.606Z,54.83
2022-08-19T18:43:04.833Z,55.10
2022-08-19T18:45:50.211Z,55.37
2022-08-19T18:48:35.796Z,54.70
2022-08-19T18:51:05.345Z,55.60
2022-08-19T18:53:35.403Z,54.80
2022-08-19T18:56:03.609Z,55.53
2022-08-19T18:58:33.935Z,55.30
2022-08-19T19:01:11.414Z,55.50
2022-08-19T19:03:43.514Z,54.77
2022-08-19T19:06:13.799Z,55.27
2022-08-19T19:08:41.604Z,55.17
2022-08-19T19:11:09.972Z,55.70
2022-08-19T19:13:39.732Z,55.20
2022-08-19T19:16:08.780Z,54.50
2022-08-19T19:18:37.287Z,55.57
2022-08-19T19:21:05.982Z,55.53
2022-08-19T19:23:35.184Z,56.03
2022-08-19T19:26:03.054Z,55.10
2022-08-19T19:28:30.878Z,55.57
2022-08-19T19:30:59.385Z,54.57
2022-08-19T19:33:27.878Z,54.37
2022-08-19T19:35:56.183Z,54.80
2022-08-19T19:38:24.034Z,54.27
2022-08-19T19:40:53.194Z,54.80
2022-08-19T19:43:21.250Z,54.13
2022-08-19T19:45:49.766Z,55.23
2022-08-19T19:48:17.572Z,54.37
2022-08-19T19:50:54.115Z,53.47
2022-08-19T19:53:26.053Z,53.80
2022-08-19T19:55:58.658Z,53.40
2022-08-19T19:58:28.733Z,54.47
2022-08-19T20:00:57.931Z,54.50
2022-08-19T20:03:26.021Z,53.70
2022-08-19T20:05:54.913Z,54.13
2022-08-19T20:08:40.585Z,53.63
2022-08-19T20:11:17.451Z,54.10
2022-08-19T20:13:45.309Z,54.27
2022-08-19T20:16:13.315Z,53.90
2022-08-19T20:18:41.121Z,54.20
2022-08-19T20:21:08.987Z,54.03
2022-08-19T20:23:36.889Z,55.00
2022-08-19T20:26:08.459Z,54.33
2022-08-19T20:28:45.703Z,54.13
2022-08-19T20:31:19.978Z,54.23
2022-08-19T20:33:48.587Z,54.60
2022-08-19T20:36:16.617Z,54.33
2022-08-19T20:38:44.461Z,53.83
2022-08-19T20:41:12.475Z,54.13
2022-08-19T20:43:41.752Z,54.70
2022-08-19T20:46:09.722Z,53.70
2022-08-19T20:48:39.578Z,53.93
2022-08-19T20:51:07.553Z,54.90
2022-08-19T20:53:35.653Z,54.10
2022-08-19T20:56:03.957Z,54.13
2022-08-19T20:58:31.947Z,54.40
2022-08-19T21:01:02.855Z,53.70
2022-08-19T21:03:32.739Z,54.03
2022-08-19T21:06:00.927Z,53.93
2022-08-19T21:08:29.825Z,54.10
2022-08-19T21:10:58.314Z,54.37
2022-08-19T21:13:26.305Z,53.03
2022-08-19T21:15:54.369Z,53.87
2022-08-19T21:18:26.751Z,54.17
2022-08-19T21:20:55.724Z,53.93
2022-08-19T21:23:25.957Z,53.80
2022-08-19T21:25:55.275Z,54.30
2022-08-19T21:28:34.355Z,53.27
2022-08-19T21:31:05.346Z,52.83
2022-08-19T21:33:34.918Z,54.30
2022-08-19T21:36:03.417Z,53.70
2022-08-19T21:38:31.815Z,53.33
2022-08-19T21:41:00.157Z,53.63
2022-08-19T21:43:33.655Z,53.17
2022-08-19T21:46:01.676Z,53.37
2022-08-19T21:48:29.601Z,53.33
2022-08-19T21:50:59.911Z,53.60
2022-08-19T21:53:34.253Z,53.70
2022-08-19T21:56:02.742Z,53.80
2022-08-19T21:58:30.955Z,53.70
2022-08-19T22:00:59.236Z,53.67
2022-08-19T22:03:27.304Z,53.50
2022-08-19T22:05:55.183Z,53.47
2022-08-19T22:08:24.533Z,53.37
2022-08-19T22:10:52.569Z,54.00
2022-08-19T22:13:20.939Z,53.60
2022-08-19T22:15:51.836Z,53.43
2022-08-19T22:18:19.754Z,53.37
2022-08-19T22:20:48.858Z,52.97
2022-08-19T22:23:16.796Z,53.80
2022-08-19T22:25:47.536Z,53.60
2022-08-19T22:28:18.851Z,53.33
2022-08-19T22:30:48.875Z,54.00
2022-08-19T22:33:20.595Z,53.27
2022-08-19T22:35:49.122Z,53.00
2022-08-19T22:38:17.329Z,53.67
2022-08-19T22:40:50.338Z,53.80
2022-08-19T22:43:21.333Z,53.70
2022-08-19T22:45:51.208Z,52.80
2022-08-19T22:48:21.261Z,53.63
2022-08-19T22:51:04.298Z,53.53
2022-08-19T22:53:32.604Z,53.97
2022-08-19T22:56:01.982Z,53.20
2022-08-19T22:58:30.183Z,53.83
2022-08-19T23:00:58.213Z,53.00
2022-08-19T23:03:26.478Z,53.67
2022-08-19T23:05:56.063Z,53.60
2022-08-19T23:08:25.101Z,53.73
2022-08-19T23:10:52.969Z,52.90
2022-08-19T23:13:22.387Z,53.00
2022-08-19T23:15:50.922Z,53.37
2022-08-19T23:18:19.980Z,53.57
2022-08-19T23:20:47.832Z,53.50
2022-08-19T23:23:19.633Z,53.13
2022-08-19T23:25:49.838Z,53.80
2022-08-19T23:28:35.319Z,52.67
2022-08-19T23:31:06.291Z,53.00
2022-08-19T23:33:50.929Z,53.83
2022-08-19T23:36:20.341Z,54.07
2022-08-19T23:38:50.393Z,53.90
2022-08-19T23:41:19.369Z,53.17
2022-08-19T23:43:47.906Z,53.90
2022-08-19T23:46:27.542Z,53.67
2022-08-19T23:48:56.429Z,54.00
2022-08-19T23:51:24.545Z,53.63
2022-08-19T23:53:52.395Z,53.23
2022-08-19T23:56:21.379Z,53.40
2022-08-19T23:58:49.308Z,53.03
